Rochedo, Brazil
Current Conditions -  °F | °C
As of 7:00 PM on Tuesday 21 Oct 2014 (Local Time) from SBCG Reporting Station
Few Clouds Few Clouds  
Wind Chill: 79°   Ceiling: Unl
Heat Index: 81°   Visibility: 6mi
Dew Point: 64°   Wind: 10mph
Humidity: 61%   Direction: 150°SSE
Pressure: 29.97"   Gusts: NA
Location:  19.95°S, 54.87°W
Report Text: SBCG 212200Z 15009KT 9999 FEW045 26/18 Q1015
Loading
Personal Weather Stations






























Interactive Weather Map
Tropical Storm Tracking
New forecast layout! Learn more

10-Day Weather Forecast

Advertisements
Track Severe Weather on mobile